• Join FlightAware (Why Join?)
  • Login
  • US Flag 
08:07AM EDT


 

Airport Tracker/Info


-or-


 

Live Flight TrackerFlight Track Log ✈ N53FJ ✈ 12-Apr-2013 ✈ KDAL - KMAF

Flight Track Log - Related Links

Times and Time Zones

All times are in EDT time to prevent confusion due to time zone crossing. See the N53FJ flight status page for this flight to view local times or setup timezone preferences in your user account.

Time Position Orientation Groundspeed Altitude Reporting Facility
EDT Latitude Longitude Course Direction KTS MPH feet Rate Location/Type
04:17PM 32.8000 -96.8167 132° Southeast 218 251 3,600  Level Dallas / Fort Worth TRACON
04:18PM 32.7500 -96.7500 132° Southeast 276 318 7,400 3,120 Climbing Dallas / Fort Worth TRACON
04:19PM 32.6833 -96.7500 180° South 289 333 9,900 1,380 Climbing Dallas / Fort Worth TRACON
04:20PM 32.6333 -96.8000 220° Southwest 324 373 10,200 2,400 Climbing Dallas / Fort Worth TRACON
04:23PM 32.6764 -97.0383 282° West 332 382 17,800 3,300 Climbing Fort Worth Center
04:24PM 32.6869 -97.1419 277° West 319 367 21,100 2,700 Climbing Fort Worth Center
04:25PM 32.6956 -97.2531 275° West 331 381 23,300 2,340 Climbing Fort Worth Center
04:26PM 32.7019 -97.3664 274° West 337 388 25,800 2,400 Climbing Fort Worth Center
04:27PM 32.7103 -97.4800 275° West 349 402 28,200 2,160 Climbing Fort Worth Center
04:28PM 32.7164 -97.5986 274° West 354 407 30,200 1,980 Climbing Fort Worth Center
04:29PM 32.7264 -97.7222 276° West 373 429 32,200 1,860 Climbing Fort Worth Center
04:30PM 32.7261 -97.8406 270° West 373 429 34,000 900 Climbing Fort Worth Center
04:31PM 32.7214 -97.9667 267° West 373 429 34,000  Level Fort Worth Center
04:32PM 32.7000 -98.0922 259° West 383 441 34,000  Level Fort Worth Center
04:33PM 32.6828 -98.2008 259° West 383 441 34,000  Level Fort Worth Center
04:34PM 32.6631 -98.3239 259° West 393 452 34,000  Level Fort Worth Center
04:35PM 32.6392 -98.4497 257° West 393 452 34,000  Level Fort Worth Center
04:36PM 32.6172 -98.5678 258° West 382 440 34,000  Level Fort Worth Center
04:37PM 32.5950 -98.6908 258° West 387 445 34,000  Level Fort Worth Center
04:38PM 32.5792 -98.8139 261° West 392 451 34,000  Level Fort Worth Center
04:39PM 32.5547 -98.9392 257° West 392 451 34,000  Level Fort Worth Center
04:40PM 32.5322 -99.0644 258° West 392 451 34,000  Level Fort Worth Center
04:41PM 32.5119 -99.1872 259° West 392 451 34,000  Level Fort Worth Center
04:42PM 32.4892 -99.3147 258° West 392 451 34,000  Level Fort Worth Center
04:43PM 32.4683 -99.4375 259° West 392 451 34,000  Level Fort Worth Center
04:44PM 32.4453 -99.5650 258° West 392 451 34,000  Level Fort Worth Center
04:45PM 32.4219 -99.7047 259° West 392 451 34,000  Level Fort Worth Center
04:46PM 32.3989 -99.8294 258° West 392 451 34,000  Level Fort Worth Center
04:47PM 32.3775 -99.9544 259° West 392 451 34,000  Level Fort Worth Center
04:48PM 32.3539 -100.0817 258° West 392 451 34,000  Level Fort Worth Center
04:49PM 32.3325 -100.2064 259° West 392 451 34,000 -180 Level Fort Worth Center
04:50PM 32.3108 -100.3336 259° West 392 451 33,700 -1,080 Descending Fort Worth Center
04:51PM 32.2869 -100.4581 257° West 392 451 31,900 -1,980 Descending Fort Worth Center
04:52PM 32.2650 -100.5853 259° West 392 451 29,800 -2,100 Descending Fort Worth Center
04:53PM 32.2408 -100.7119 257° West 392 451 27,700 -2,100 Descending Fort Worth Center
04:54PM 32.2208 -100.8364 259° West 392 451 25,700 -2,040 Descending Fort Worth Center
04:55PM 32.1967 -100.9533 256° West 386 444 23,700 -1,980 Descending Fort Worth Center
04:56PM 32.1767 -101.0681 258° West 378 435 21,800 -1,800 Descending Fort Worth Center
04:57PM 32.1592 -101.1728 259° West 368 423 20,100 -1,800 Descending Fort Worth Center
04:58PM 32.1369 -101.2847 257° West 363 418 18,300 -1,860 Descending Fort Worth Center
04:59PM 32.1169 -101.3917 258° West 351 404 16,400 -1,560 Descending Fort Worth Center
05:00PM 32.1008 -101.5039 260° West 351 404 15,200 -1,500 Descending Fort Worth Center
05:01PM 32.1094 -101.6169 275° West 351 404 13,400 -1,800 Descending Fort Worth Center
05:02PM 32.1039 -101.7222 266° West 340 391 11,700 -1,500 Descending Fort Worth Center
05:03PM 32.0922 -101.8147 262° West 316 364 10,400 -1,380 Descending Fort Worth Center
05:04PM 32.0828 -101.9075 263° West 303 349 9,000 -1,380 Descending Fort Worth Center
05:05PM 32.0711 -101.9975 261° West 290 334 7,700 -1,260 Descending Fort Worth Center
05:06PM 32.0639 -102.0806 264° West 278 320 6,500 -1,140 Descending Fort Worth Center
05:07PM 32.0550 -102.1511 262° West 251 289 5,500 -960 Descending Fort Worth Center
05:08PM 32.0447 -102.2047 257° West 210 242 4,600 -840 Descending Fort Worth Center
05:09PM 32.0131 -102.2153 196° South 146 168 3,900 -720 Descending Fort Worth Center
05:10PM 31.9756 -102.2083 171° South 119 137 3,200 -420 Descending Fort Worth Center
05:11PM 31.9436 -102.2261 205° Southwest 119 137 3,100 -120 Descending Fort Worth Center